sensor_id;sensor_type;location;lat;lon;timestamp;pressure;altitude;pressure_sealevel;temperature;humidity
6423;BME280;3244;42.708;23.288;2023-01-30T00:01:37;95329.13;;;1.62;74.66
6423;BME280;3244;42.708;23.288;2023-01-30T00:04:06;95334.09;;;1.53;75.00
6423;BME280;3244;42.708;23.288;2023-01-30T00:06:32;95320.72;;;1.54;75.37
6423;BME280;3244;42.708;23.288;2023-01-30T00:08:59;95324.09;;;1.56;75.09
6423;BME280;3244;42.708;23.288;2023-01-30T00:11:26;95328.28;;;1.58;74.49
6423;BME280;3244;42.708;23.288;2023-01-30T00:13:54;95315.69;;;1.43;75.46
6423;BME280;3244;42.708;23.288;2023-01-30T00:16:21;95326.59;;;1.56;74.73
6423;BME280;3244;42.708;23.288;2023-01-30T00:18:48;95337.44;;;1.55;74.95
6423;BME280;3244;42.708;23.288;2023-01-30T00:21:16;95317.34;;;1.40;75.85
6423;BME280;3244;42.708;23.288;2023-01-30T00:23:43;95331.59;;;1.57;75.06
6423;BME280;3244;42.708;23.288;2023-01-30T00:26:11;95330.78;;;1.60;74.76
6423;BME280;3244;42.708;23.288;2023-01-30T00:28:38;95303.16;;;1.42;75.74
6423;BME280;3244;42.708;23.288;2023-01-30T00:31:05;95334.09;;;1.56;75.00
6423;BME280;3244;42.708;23.288;2023-01-30T00:33:32;95325.72;;;1.45;75.51
6423;BME280;3244;42.708;23.288;2023-01-30T00:36:00;95324.88;;;1.44;76.27
6423;BME280;3244;42.708;23.288;2023-01-30T00:38:29;95320.72;;;1.46;75.86
6423;BME280;3244;42.708;23.288;2023-01-30T00:40:55;95301.50;;;1.50;74.46
6423;BME280;3244;42.708;23.288;2023-01-30T00:43:22;95310.69;;;1.51;74.74
6423;BME280;3244;42.708;23.288;2023-01-30T00:46:12;95295.63;;;1.42;75.38
6423;BME280;3244;42.708;23.288;2023-01-30T00:49:09;95314.88;;;1.50;74.51
6423;BME280;3244;42.708;23.288;2023-01-30T00:51:36;95314.03;;;1.47;74.66
6423;BME280;3244;42.708;23.288;2023-01-30T00:54:04;95306.53;;;1.51;75.87
6423;BME280;3244;42.708;23.288;2023-01-30T00:56:31;95307.34;;;1.50;75.17
6423;BME280;3244;42.708;23.288;2023-01-30T00:58:58;95309.03;;;1.45;75.81
6423;BME280;3244;42.708;23.288;2023-01-30T01:01:25;95301.47;;;1.41;75.70
6423;BME280;3244;42.708;23.288;2023-01-30T01:03:52;95313.19;;;1.45;75.49
6423;BME280;3244;42.708;23.288;2023-01-30T01:06:18;95303.19;;;1.45;75.53
6423;BME280;3244;42.708;23.288;2023-01-30T01:08:45;95311.47;;;1.36;75.11
6423;BME280;3244;42.708;23.288;2023-01-30T01:11:13;95298.13;;;1.39;75.96
6423;BME280;3244;42.708;23.288;2023-01-30T01:13:49;95308.06;;;1.29;75.73
6423;BME280;3244;42.708;23.288;2023-01-30T01:16:16;95296.38;;;1.28;75.70
6423;BME280;3244;42.708;23.288;2023-01-30T01:18:43;95307.25;;;1.30;75.64
6423;BME280;3244;42.708;23.288;2023-01-30T01:21:10;95301.44;;;1.34;76.29
6423;BME280;3244;42.708;23.288;2023-01-30T01:23:37;95273.03;;;1.29;76.09
6423;BME280;3244;42.708;23.288;2023-01-30T01:26:04;95290.59;;;1.37;75.74
6423;BME280;3244;42.708;23.288;2023-01-30T01:28:32;95293.94;;;1.34;75.99
6423;BME280;3244;42.708;23.288;2023-01-30T01:30:59;95292.28;;;1.36;75.91
6423;BME280;3244;42.708;23.288;2023-01-30T01:33:26;95282.25;;;1.36;75.64
6423;BME280;3244;42.708;23.288;2023-01-30T01:35:54;95282.28;;;1.40;76.03
6423;BME280;3244;42.708;23.288;2023-01-30T01:38:21;95283.09;;;1.35;75.82
6423;BME280;3244;42.708;23.288;2023-01-30T01:40:48;95286.44;;;1.36;76.14
6423;BME280;3244;42.708;23.288;2023-01-30T01:43:34;95285.59;;;1.39;76.15
6423;BME280;3244;42.708;23.288;2023-01-30T01:46:05;95291.44;;;1.39;75.86
6423;BME280;3244;42.708;23.288;2023-01-30T01:48:37;95282.31;;;1.46;76.11
6423;BME280;3244;42.708;23.288;2023-01-30T01:51:08;95287.31;;;1.43;75.67
6423;BME280;3244;42.708;23.288;2023-01-30T01:53:40;95284.78;;;1.41;75.59
6423;BME280;3244;42.708;23.288;2023-01-30T01:56:10;95281.41;;;1.33;76.14
6423;BME280;3244;42.708;23.288;2023-01-30T01:58:43;95283.06;;;1.34;75.71
6423;BME280;3244;42.708;23.288;2023-01-30T02:01:11;95291.41;;;1.30;75.98
6423;BME280;3244;42.708;23.288;2023-01-30T02:03:41;95291.38;;;1.28;76.36
6423;BME280;3244;42.708;23.288;2023-01-30T02:06:11;95278.91;;;1.34;75.09
6423;BME280;3244;42.708;23.288;2023-01-30T02:08:42;95287.22;;;1.30;76.32
6423;BME280;3244;42.708;23.288;2023-01-30T02:11:16;95288.88;;;1.28;76.29
6423;BME280;3244;42.708;23.288;2023-01-30T02:13:47;95285.53;;;1.29;75.96
6423;BME280;3244;42.708;23.288;2023-01-30T02:16:14;95287.22;;;1.30;75.84
6423;BME280;3244;42.708;23.288;2023-01-30T02:18:42;95287.25;;;1.33;75.38
6423;BME280;3244;42.708;23.288;2023-01-30T02:24:33;95283.06;;;1.31;76.18
6423;BME280;3244;42.708;23.288;2023-01-30T02:27:19;95287.22;;;1.32;75.96
6423;BME280;3244;42.708;23.288;2023-01-30T02:33:21;95290.53;;;1.26;76.37
6423;BME280;3244;42.708;23.288;2023-01-30T02:35:59;95263.78;;;1.13;76.16
6423;BME280;3244;42.708;23.288;2023-01-30T02:38:36;95293.88;;;1.25;75.44
6423;BME280;3244;42.708;23.288;2023-01-30T02:41:13;95265.47;;;1.19;76.03
6423;BME280;3244;42.708;23.288;2023-01-30T02:43:49;95276.38;;;1.30;76.19
6423;BME280;3244;42.708;23.288;2023-01-30T02:46:21;95275.59;;;1.39;75.63
6423;BME280;3244;42.708;23.288;2023-01-30T02:48:55;95274.78;;;1.44;76.39
6423;BME280;3244;42.708;23.288;2023-01-30T02:51:28;95276.47;;;1.50;74.81
6423;BME280;3244;42.708;23.288;2023-01-30T02:53:55;95271.44;;;1.44;74.97
6423;BME280;3244;42.708;23.288;2023-01-30T02:56:23;95273.94;;;1.44;75.31
6423;BME280;3244;42.708;23.288;2023-01-30T02:58:53;95278.13;;;1.49;75.94
6423;BME280;3244;42.708;23.288;2023-01-30T03:01:52;95280.69;;;1.57;75.06
6423;BME280;3244;42.708;23.288;2023-01-30T03:05:00;95285.66;;;1.54;74.98
6423;BME280;3244;42.708;23.288;2023-01-30T03:07:39;95287.34;;;1.55;74.77
6423;BME280;3244;42.708;23.288;2023-01-30T03:10:16;95269.81;;;1.53;74.10
6423;BME280;3244;42.708;23.288;2023-01-30T03:12:49;95268.97;;;1.56;74.34
6423;BME280;3244;42.708;23.288;2023-01-30T03:15:28;95263.97;;;1.56;74.06
6423;BME280;3244;42.708;23.288;2023-01-30T03:17:59;95262.31;;;1.58;74.80
6423;BME280;3244;42.708;23.288;2023-01-30T03:20:28;95263.16;;;1.58;74.06
6423;BME280;3244;42.708;23.288;2023-01-30T03:22:55;95259.81;;;1.56;73.61
6423;BME280;3244;42.708;23.288;2023-01-30T03:25:23;95250.59;;;1.52;74.65
6423;BME280;3244;42.708;23.288;2023-01-30T03:27:53;95243.09;;;1.55;74.53
6423;BME280;3244;42.708;23.288;2023-01-30T03:30:22;95244.75;;;1.52;74.15
6423;BME280;3244;42.708;23.288;2023-01-30T03:32:50;95241.41;;;1.42;74.49
6423;BME280;3244;42.708;23.288;2023-01-30T03:35:16;95236.41;;;1.45;74.30
6423;BME280;3244;42.708;23.288;2023-01-30T03:37:45;95233.91;;;1.47;74.03
6423;BME280;3244;42.708;23.288;2023-01-30T03:40:13;95238.06;;;1.43;73.79
6423;BME280;3244;42.708;23.288;2023-01-30T03:42:41;95229.72;;;1.43;73.95
6423;BME280;3244;42.708;23.288;2023-01-30T03:45:09;95235.53;;;1.39;74.21
6423;BME280;3244;42.708;23.288;2023-01-30T03:47:36;95228.84;;;1.38;74.87
6423;BME280;3244;42.708;23.288;2023-01-30T03:50:03;95238.00;;;1.34;74.58
6423;BME280;3244;42.708;23.288;2023-01-30T03:52:33;95227.97;;;1.29;75.53
6423;BME280;3244;42.708;23.288;2023-01-30T03:55:01;95224.63;;;1.30;74.99
6423;BME280;3244;42.708;23.288;2023-01-30T03:57:28;95227.13;;;1.30;74.68
6423;BME280;3244;42.708;23.288;2023-01-30T03:59:55;95226.28;;;1.25;74.43
6423;BME280;3244;42.708;23.288;2023-01-30T04:02:22;95225.44;;;1.20;74.80
6423;BME280;3244;42.708;23.288;2023-01-30T04:04:50;95222.94;;;1.19;74.51
6423;BME280;3244;42.708;23.288;2023-01-30T04:07:17;95227.94;;;1.19;75.00
6423;BME280;3244;42.708;23.288;2023-01-30T04:09:44;95221.25;;;1.24;75.09
6423;BME280;3244;42.708;23.288;2023-01-30T04:12:12;95222.97;;;1.34;74.22
6423;BME280;3244;42.708;23.288;2023-01-30T04:14:39;95216.31;;;1.33;74.44
6423;BME280;3244;42.708;23.288;2023-01-30T04:17:06;95225.47;;;1.32;73.67
6423;BME280;3244;42.708;23.288;2023-01-30T04:19:33;95215.44;;;1.29;74.62
6423;BME280;3244;42.708;23.288;2023-01-30T04:21:59;95222.06;;;1.15;74.34
6423;BME280;3244;42.708;23.288;2023-01-30T04:24:26;95220.34;;;1.05;75.80
6423;BME280;3244;42.708;23.288;2023-01-30T04:26:53;95209.47;;;0.98;75.77
6423;BME280;3244;42.708;23.288;2023-01-30T04:29:21;95225.34;;;0.99;76.47
6423;BME280;3244;42.708;23.288;2023-01-30T04:31:48;95220.31;;;1.00;75.75
6423;BME280;3244;42.708;23.288;2023-01-30T04:34:15;95225.34;;;0.99;75.99
6423;BME280;3244;42.708;23.288;2023-01-30T04:36:41;95211.97;;;1.01;75.53
6423;BME280;3244;42.708;23.288;2023-01-30T04:39:08;95219.50;;;1.05;76.24
6423;BME280;3244;42.708;23.288;2023-01-30T04:41:35;95214.53;;;1.11;75.48
6423;BME280;3244;42.708;23.288;2023-01-30T04:44:02;95220.38;;;1.11;75.06
6423;BME280;3244;42.708;23.288;2023-01-30T04:46:30;95211.22;;;1.16;75.59
6423;BME280;3244;42.708;23.288;2023-01-30T04:48:57;95212.03;;;1.09;76.82
6423;BME280;3244;42.708;23.288;2023-01-30T04:51:23;95202.00;;;1.06;75.57
6423;BME280;3244;42.708;23.288;2023-01-30T04:53:50;95204.47;;;1.05;76.81
6423;BME280;3244;42.708;23.288;2023-01-30T04:56:17;95196.97;;;1.05;76.66
6423;BME280;3244;42.708;23.288;2023-01-30T04:58:44;95192.81;;;1.05;76.04
6423;BME280;3244;42.708;23.288;2023-01-30T05:01:12;95202.00;;;1.06;76.62
6423;BME280;3244;42.708;23.288;2023-01-30T05:03:40;95200.34;;;1.08;75.70
6423;BME280;3244;42.708;23.288;2023-01-30T05:06:07;95194.50;;;1.09;76.37
6423;BME280;3244;42.708;23.288;2023-01-30T05:08:34;95196.97;;;1.06;76.83
6423;BME280;3244;42.708;23.288;2023-01-30T05:11:01;95195.34;;;1.10;76.30
6423;BME280;3244;42.708;23.288;2023-01-30T05:13:27;95200.34;;;1.11;76.62
6423;BME280;3244;42.708;23.288;2023-01-30T05:15:54;95198.69;;;1.12;76.66
6423;BME280;3244;42.708;23.288;2023-01-30T05:18:21;95200.31;;;1.05;76.47
6423;BME280;3244;42.708;23.288;2023-01-30T05:20:49;95195.34;;;1.11;77.02
6423;BME280;3244;42.708;23.288;2023-01-30T05:23:16;95204.47;;;1.01;77.07
6423;BME280;3244;42.708;23.288;2023-01-30T05:25:43;95202.78;;;1.02;78.04
6423;BME280;3244;42.708;23.288;2023-01-30T05:28:09;95207.00;;;1.05;78.22
6423;BME280;3244;42.708;23.288;2023-01-30T05:30:36;95213.69;;;1.10;77.95
6423;BME280;3244;42.708;23.288;2023-01-30T05:33:03;95212.06;;;1.15;77.76
6423;BME280;3244;42.708;23.288;2023-01-30T05:35:29;95206.94;;;1.00;77.54
6423;BME280;3244;42.708;23.288;2023-01-30T05:37:58;95207.81;;;1.05;78.44
6423;BME280;3244;42.708;23.288;2023-01-30T05:40:26;95202.81;;;1.05;78.53
6423;BME280;3244;42.708;23.288;2023-01-30T05:42:53;95213.66;;;1.02;77.93
6423;BME280;3244;42.708;23.288;2023-01-30T05:45:20;95206.16;;;1.04;78.07
6423;BME280;3244;42.708;23.288;2023-01-30T05:47:49;95190.25;;;0.93;78.48
6423;BME280;3244;42.708;23.288;2023-01-30T05:50:17;95207.84;;;1.10;78.32
6423;BME280;3244;42.708;23.288;2023-01-30T05:52:43;95208.66;;;1.07;78.68
6423;BME280;3244;42.708;23.288;2023-01-30T05:55:12;95214.56;;;1.18;78.65
6423;BME280;3244;42.708;23.288;2023-01-30T05:57:38;95215.38;;;1.14;78.52
6423;BME280;3244;42.708;23.288;2023-01-30T06:00:06;95207.03;;;1.12;77.48
6423;BME280;3244;42.708;23.288;2023-01-30T06:02:34;95217.88;;;1.11;77.97
6423;BME280;3244;42.708;23.288;2023-01-30T06:05:01;95211.19;;;1.09;78.67
6423;BME280;3244;42.708;23.288;2023-01-30T06:07:28;95219.59;;;1.21;77.27
6423;BME280;3244;42.708;23.288;2023-01-30T06:09:55;95220.41;;;1.14;77.97
6423;BME280;3244;42.708;23.288;2023-01-30T06:12:23;95213.75;;;1.19;78.59
6423;BME280;3244;42.708;23.288;2023-01-30T06:14:50;95218.75;;;1.19;77.70
6423;BME280;3244;42.708;23.288;2023-01-30T06:17:16;95218.78;;;1.22;78.51
6423;BME280;3244;42.708;23.288;2023-01-30T06:19:43;95212.91;;;1.25;78.46
6423;BME280;3244;42.708;23.288;2023-01-30T06:22:10;95207.13;;;1.33;78.07
6423;BME280;3244;42.708;23.288;2023-01-30T06:24:36;95207.13;;;1.33;77.66
6423;BME280;3244;42.708;23.288;2023-01-30T06:27:03;95209.66;;;1.38;77.06
6423;BME280;3244;42.708;23.288;2023-01-30T06:29:31;95207.09;;;1.30;78.60
6423;BME280;3244;42.708;23.288;2023-01-30T06:31:58;95207.09;;;1.30;77.27
6423;BME280;3244;42.708;23.288;2023-01-30T06:34:25;95203.00;;;1.42;77.06
6423;BME280;3244;42.708;23.288;2023-01-30T06:36:52;95205.47;;;1.35;76.91
6423;BME280;3244;42.708;23.288;2023-01-30T06:39:18;95202.91;;;1.25;76.77
6423;BME280;3244;42.708;23.288;2023-01-30T06:41:45;95210.47;;;1.32;77.67
6423;BME280;3244;42.708;23.288;2023-01-30T06:44:12;95205.44;;;1.32;76.36
6423;BME280;3244;42.708;23.288;2023-01-30T06:46:40;95211.25;;;1.24;76.90
6423;BME280;3244;42.708;23.288;2023-01-30T06:49:07;95210.41;;;1.20;77.44
6423;BME280;3244;42.708;23.288;2023-01-30T06:51:34;95209.59;;;1.23;78.34
6423;BME280;3244;42.708;23.288;2023-01-30T06:54:00;95209.59;;;1.27;77.82
6423;BME280;3244;42.708;23.288;2023-01-30T06:56:27;95219.66;;;1.36;76.52
6423;BME280;3244;42.708;23.288;2023-01-30T06:58:54;95214.66;;;1.38;76.60
6423;BME280;3244;42.708;23.288;2023-01-30T07:01:21;95217.19;;;1.46;77.05
6423;BME280;3244;42.708;23.288;2023-01-30T07:03:49;95217.16;;;1.40;77.10
6423;BME280;3244;42.708;23.288;2023-01-30T07:06:16;95216.38;;;1.47;77.09
6423;BME280;3244;42.708;23.288;2023-01-30T07:08:42;95218.88;;;1.47;76.37
6423;BME280;3244;42.708;23.288;2023-01-30T07:11:09;95230.53;;;1.39;76.92
6423;BME280;3244;42.708;23.288;2023-01-30T07:13:36;95233.88;;;1.44;76.87
6423;BME280;3244;42.708;23.288;2023-01-30T07:16:03;95220.53;;;1.46;75.75
6423;BME280;3244;42.708;23.288;2023-01-30T07:18:30;95207.97;;;1.37;75.41
6423;BME280;3244;42.708;23.288;2023-01-30T07:20:58;95223.88;;;1.53;75.67
6423;BME280;3244;42.708;23.288;2023-01-30T07:23:25;95232.25;;;1.53;76.32
6423;BME280;3244;42.708;23.288;2023-01-30T07:25:52;95220.56;;;1.58;76.06
6423;BME280;3244;42.708;23.288;2023-01-30T07:28:19;95225.63;;;1.66;75.26
6423;BME280;3244;42.708;23.288;2023-01-30T07:30:46;95232.31;;;1.73;74.85
6423;BME280;3244;42.708;23.288;2023-01-30T07:33:17;95230.66;;;1.81;74.50
6423;BME280;3244;42.708;23.288;2023-01-30T07:35:44;95239.06;;;1.92;74.08
6423;BME280;3244;42.708;23.288;2023-01-30T07:38:12;95245.75;;;1.96;74.09
6423;BME280;3244;42.708;23.288;2023-01-30T07:40:39;95243.25;;;1.95;73.73
6423;BME280;3244;42.708;23.288;2023-01-30T07:43:09;95228.19;;;2.02;72.12
6423;BME280;3244;42.708;23.288;2023-01-30T07:45:38;95248.25;;;2.01;71.35
6423;BME280;3244;42.708;23.288;2023-01-30T07:48:05;95244.06;;;1.95;72.22
6423;BME280;3244;42.708;23.288;2023-01-30T07:50:32;95239.06;;;1.95;73.44
6423;BME280;3244;42.708;23.288;2023-01-30T07:53:01;95234.06;;;2.04;73.65
6423;BME280;3244;42.708;23.288;2023-01-30T07:55:30;95233.22;;;2.10;72.71
6423;BME280;3244;42.708;23.288;2023-01-30T07:57:57;95229.06;;;2.14;72.37
6423;BME280;3244;42.708;23.288;2023-01-30T08:00:24;95220.72;;;2.18;72.14
6423;BME280;3244;42.708;23.288;2023-01-30T08:02:51;95219.84;;;2.07;72.75
6423;BME280;3244;42.708;23.288;2023-01-30T08:05:18;95214.84;;;2.11;73.00
6423;BME280;3244;42.708;23.288;2023-01-30T08:07:44;95207.34;;;2.26;72.14
6423;BME280;3244;42.708;23.288;2023-01-30T08:10:12;95210.69;;;2.21;73.39
6423;BME280;3244;42.708;23.288;2023-01-30T08:12:41;95211.50;;;2.26;72.94
6423;BME280;3244;42.708;23.288;2023-01-30T08:15:09;95210.69;;;2.27;72.40
6423;BME280;3244;42.708;23.288;2023-01-30T08:17:36;95194.81;;;2.20;72.81
6423;BME280;3244;42.708;23.288;2023-01-30T08:20:04;95209.00;;;2.17;73.29
6423;BME280;3244;42.708;23.288;2023-01-30T08:22:31;95206.50;;;2.18;73.07
6423;BME280;3244;42.708;23.288;2023-01-30T08:24:57;95205.66;;;2.30;73.30
6423;BME280;3244;42.708;23.288;2023-01-30T08:27:24;95203.19;;;2.22;73.04
6423;BME280;3244;42.708;23.288;2023-01-30T08:29:52;95206.50;;;2.29;72.22
6423;BME280;3244;42.708;23.288;2023-01-30T08:32:19;95201.47;;;2.27;72.36
6423;BME280;3244;42.708;23.288;2023-01-30T08:34:46;95189.78;;;2.35;72.76
6423;BME280;3244;42.708;23.288;2023-01-30T08:37:13;95185.63;;;2.39;72.33
6423;BME280;3244;42.708;23.288;2023-01-30T08:39:39;95189.81;;;2.40;71.44
6423;BME280;3244;42.708;23.288;2023-01-30T08:42:06;95193.97;;;2.26;71.62
6423;BME280;3244;42.708;23.288;2023-01-30T08:44:33;95186.44;;;2.30;72.28
6423;BME280;3244;42.708;23.288;2023-01-30T08:47:01;95179.75;;;2.35;71.64
6423;BME280;3244;42.708;23.288;2023-01-30T08:49:28;95187.28;;;2.40;71.68
6423;BME280;3244;42.708;23.288;2023-01-30T08:51:55;95187.28;;;2.43;71.13
6423;BME280;3244;42.708;23.288;2023-01-30T08:54:22;95187.28;;;2.43;71.85
6423;BME280;3244;42.708;23.288;2023-01-30T08:56:48;95183.91;;;2.53;71.10
6423;BME280;3244;42.708;23.288;2023-01-30T08:59:15;95173.88;;;2.59;71.22
6423;BME280;3244;42.708;23.288;2023-01-30T09:01:42;95170.53;;;2.60;69.91
6423;BME280;3244;42.708;23.288;2023-01-30T09:04:10;95158.03;;;2.34;70.05
6423;BME280;3244;42.708;23.288;2023-01-30T09:06:37;95178.06;;;2.54;70.31
6423;BME280;3244;42.708;23.288;2023-01-30T09:09:04;95168.88;;;2.50;70.06
6423;BME280;3244;42.708;23.288;2023-01-30T09:11:30;95168.88;;;2.53;69.58
6423;BME280;3244;42.708;23.288;2023-01-30T09:13:57;95168.03;;;2.57;68.78
6423;BME280;3244;42.708;23.288;2023-01-30T09:16:24;95164.72;;;2.42;70.22
6423;BME280;3244;42.708;23.288;2023-01-30T09:18:51;95164.72;;;2.32;69.69
6423;BME280;3244;42.708;23.288;2023-01-30T09:21:19;95162.19;;;2.31;69.76
6423;BME280;3244;42.708;23.288;2023-01-30T09:23:46;95162.19;;;2.26;69.92
6423;BME280;3244;42.708;23.288;2023-01-30T09:26:13;95155.53;;;2.22;70.42
6423;BME280;3244;42.708;23.288;2023-01-30T09:28:39;95158.84;;;2.24;71.25
6423;BME280;3244;42.708;23.288;2023-01-30T09:31:06;95169.72;;;2.26;70.33
6423;BME280;3244;42.708;23.288;2023-01-30T09:33:33;95163.88;;;2.23;70.91
6423;BME280;3244;42.708;23.288;2023-01-30T09:36:00;95158.03;;;2.16;71.24
6423;BME280;3244;42.708;23.288;2023-01-30T09:38:28;95155.50;;;2.24;71.47
6423;BME280;3244;42.708;23.288;2023-01-30T09:41:06;95144.66;;;2.25;70.54
6423;BME280;3244;42.708;23.288;2023-01-30T09:43:56;95148.00;;;2.21;71.69
6423;BME280;3244;42.708;23.288;2023-01-30T09:46:34;95143.81;;;2.26;70.49
6423;BME280;3244;42.708;23.288;2023-01-30T09:49:16;95142.13;;;2.28;71.35
6423;BME280;3244;42.708;23.288;2023-01-30T09:51:54;95136.28;;;2.30;71.36
6423;BME280;3244;42.708;23.288;2023-01-30T09:54:28;95137.13;;;2.40;71.15
6423;BME280;3244;42.708;23.288;2023-01-30T09:57:08;95131.28;;;2.39;70.72
6423;BME280;3244;42.708;23.288;2023-01-30T09:59:44;95138.81;;;2.32;70.50
6423;BME280;3244;42.708;23.288;2023-01-30T10:02:26;95132.97;;;2.13;70.49
6423;BME280;3244;42.708;23.288;2023-01-30T10:04:55;95120.44;;;2.12;70.74
6423;BME280;3244;42.708;23.288;2023-01-30T10:07:30;95117.91;;;2.10;71.68
6423;BME280;3244;42.708;23.288;2023-01-30T10:10:06;95112.91;;;2.13;70.28
6423;BME280;3244;42.708;23.288;2023-01-30T10:12:44;95109.53;;;2.25;69.75
6423;BME280;3244;42.708;23.288;2023-01-30T10:18:37;95093.66;;;2.29;69.62
6423;BME280;3244;42.708;23.288;2023-01-30T10:21:12;95090.31;;;2.33;69.61
6423;BME280;3244;42.708;23.288;2023-01-30T10:23:51;95088.63;;;2.47;71.56
6423;BME280;3244;42.708;23.288;2023-01-30T10:26:23;95079.38;;;2.64;68.77
6423;BME280;3244;42.708;23.288;2023-01-30T10:28:55;95081.03;;;2.71;68.05
6423;BME280;3244;42.708;23.288;2023-01-30T10:31:25;95081.91;;;2.67;67.32
6423;BME280;3244;42.708;23.288;2023-01-30T10:33:58;95073.53;;;2.62;66.89
6423;BME280;3244;42.708;23.288;2023-01-30T10:36:33;95069.34;;;2.60;67.57
6423;BME280;3244;42.708;23.288;2023-01-30T10:39:03;95064.34;;;2.57;67.87
6423;BME280;3244;42.708;23.288;2023-01-30T10:41:42;95054.31;;;2.57;66.95
6423;BME280;3244;42.708;23.288;2023-01-30T10:44:13;95061.84;;;2.49;67.76
6423;BME280;3244;42.708;23.288;2023-01-30T10:49:39;94984.19;;;2.23;66.66
6423;BME280;3244;42.708;23.288;2023-01-30T10:52:20;95039.25;;;2.63;65.92
6423;BME280;3244;42.708;23.288;2023-01-30T10:54:59;95034.22;;;2.66;66.02
6423;BME280;3244;42.708;23.288;2023-01-30T10:57:39;95004.16;;;2.57;66.91
6423;BME280;3244;42.708;23.288;2023-01-30T11:00:18;95009.13;;;2.70;65.97
6423;BME280;3244;42.708;23.288;2023-01-30T11:02:57;95010.78;;;2.71;66.30
6423;BME280;3244;42.708;23.288;2023-01-30T11:05:29;95000.69;;;2.81;66.19
6423;BME280;3244;42.708;23.288;2023-01-30T11:08:20;94998.16;;;2.87;66.12
6423;BME280;3244;42.708;23.288;2023-01-30T11:10:48;95001.50;;;2.89;66.18
6423;BME280;3244;42.708;23.288;2023-01-30T11:13:18;94986.44;;;2.86;65.88
6423;BME280;3244;42.708;23.288;2023-01-30T11:15:47;94958.88;;;2.78;65.77
6423;BME280;3244;42.708;23.288;2023-01-30T11:18:16;94978.81;;;3.05;65.91
6423;BME280;3244;42.708;23.288;2023-01-30T11:20:45;94964.53;;;3.12;64.75
6423;BME280;3244;42.708;23.288;2023-01-30T11:23:24;94963.78;;;2.99;64.83
6423;BME280;3244;42.708;23.288;2023-01-30T11:25:53;94965.50;;;2.91;65.03
6423;BME280;3244;42.708;23.288;2023-01-30T11:28:23;94958.88;;;2.78;66.64
6423;BME280;3244;42.708;23.288;2023-01-30T11:30:52;94958.13;;;2.68;66.03
6423;BME280;3244;42.708;23.288;2023-01-30T11:33:22;94957.19;;;2.79;65.71
6423;BME280;3244;42.708;23.288;2023-01-30T11:35:55;94956.34;;;2.83;66.33
6423;BME280;3244;42.708;23.288;2023-01-30T11:38:24;94944.66;;;2.80;65.78
6423;BME280;3244;42.708;23.288;2023-01-30T11:41:01;94936.31;;;2.77;65.82
6423;BME280;3244;42.708;23.288;2023-01-30T11:43:31;94937.19;;;2.71;66.59
6423;BME280;3244;42.708;23.288;2023-01-30T11:45:59;94917.84;;;2.85;67.14
6423;BME280;3244;42.708;23.288;2023-01-30T11:48:31;94910.28;;;2.94;66.24
6423;BME280;3244;42.708;23.288;2023-01-30T11:51:00;94905.84;;;3.22;65.01
6423;BME280;3244;42.708;23.288;2023-01-30T11:53:32;94905.81;;;3.31;64.64
6423;BME280;3244;42.708;23.288;2023-01-30T11:56:05;94904.16;;;3.26;64.33
6423;BME280;3244;42.708;23.288;2023-01-30T11:58:37;94900.94;;;3.13;65.28
6423;BME280;3244;42.708;23.288;2023-01-30T12:01:07;94890.97;;;3.01;64.80
6423;BME280;3244;42.708;23.288;2023-01-30T12:03:42;94895.09;;;3.08;65.41
6423;BME280;3244;42.708;23.288;2023-01-30T12:06:10;94884.19;;;3.12;64.46
6423;BME280;3244;42.708;23.288;2023-01-30T12:08:41;94884.19;;;3.12;64.87
6423;BME280;3244;42.708;23.288;2023-01-30T12:11:24;94880.03;;;3.08;63.81
6423;BME280;3244;42.708;23.288;2023-01-30T12:13:54;94870.84;;;3.07;64.14
6423;BME280;3244;42.708;23.288;2023-01-30T12:16:25;94869.28;;;2.97;65.18
6423;BME280;3244;42.708;23.288;2023-01-30T12:19:02;94868.41;;;2.98;65.20
6423;BME280;3244;42.708;23.288;2023-01-30T12:21:37;94861.63;;;3.09;65.40
6423;BME280;3244;42.708;23.288;2023-01-30T12:24:15;94856.53;;;3.18;64.10
6423;BME280;3244;42.708;23.288;2023-01-30T12:26:49;94852.34;;;3.20;64.60
6423;BME280;3244;42.708;23.288;2023-01-30T12:29:24;94844.75;;;3.22;64.09
6423;BME280;3244;42.708;23.288;2023-01-30T12:32:01;94843.97;;;3.18;63.50
6423;BME280;3244;42.708;23.288;2023-01-30T12:34:31;94837.28;;;3.20;63.66
6423;BME280;3244;42.708;23.288;2023-01-30T12:37:07;94839.69;;;3.29;63.92
6423;BME280;3244;42.708;23.288;2023-01-30T12:39:47;94831.91;;;3.54;63.51
6423;BME280;3244;42.708;23.288;2023-01-30T12:42:32;94830.75;;;3.82;63.00
6423;BME280;3244;42.708;23.288;2023-01-30T12:45:18;94808.00;;;3.94;62.11
6423;BME280;3244;42.708;23.288;2023-01-30T12:48:00;94818.78;;;4.02;61.53
6423;BME280;3244;42.708;23.288;2023-01-30T12:50:37;94821.38;;;3.96;61.57
6423;BME280;3244;42.708;23.288;2023-01-30T12:53:21;94824.06;;;3.83;61.74
6423;BME280;3244;42.708;23.288;2023-01-30T12:56:14;94811.47;;;3.84;61.67
6423;BME280;3244;42.708;23.288;2023-01-30T12:58:50;94809.72;;;3.91;62.16
6423;BME280;3244;42.708;23.288;2023-01-30T13:01:26;94806.50;;;3.78;62.08
6423;BME280;3244;42.708;23.288;2023-01-30T13:04:01;94810.63;;;3.84;62.71
6423;BME280;3244;42.708;23.288;2023-01-30T13:06:51;94800.47;;;3.93;62.52
6423;BME280;3244;42.708;23.288;2023-01-30T13:09:36;94804.59;;;3.98;61.55
6423;BME280;3244;42.708;23.288;2023-01-30T13:12:09;94804.69;;;3.92;62.04
6423;BME280;3244;42.708;23.288;2023-01-30T13:14:43;94804.97;;;3.68;62.50
6423;BME280;3244;42.708;23.288;2023-01-30T13:17:28;94800.97;;;3.47;63.32
6423;BME280;3244;42.708;23.288;2023-01-30T13:20:00;94797.69;;;3.44;63.48
6423;BME280;3244;42.708;23.288;2023-01-30T13:22:34;94805.16;;;3.47;63.48
6423;BME280;3244;42.708;23.288;2023-01-30T13:25:11;94786.00;;;3.41;63.70
6423;BME280;3244;42.708;23.288;2023-01-30T13:27:45;94774.34;;;3.32;63.03
6423;BME280;3244;42.708;23.288;2023-01-30T13:30:16;94787.66;;;3.42;63.62
6423;BME280;3244;42.708;23.288;2023-01-30T13:32:47;94783.38;;;3.49;63.24
6423;BME280;3244;42.708;23.288;2023-01-30T13:35:16;94771.78;;;3.40;63.05
6423;BME280;3244;42.708;23.288;2023-01-30T13:37:46;94765.22;;;3.25;63.64
6423;BME280;3244;42.708;23.288;2023-01-30T13:40:16;94739.47;;;3.05;64.18
6423;BME280;3244;42.708;23.288;2023-01-30T13:42:46;94767.72;;;3.25;64.07
6423;BME280;3244;42.708;23.288;2023-01-30T13:45:16;94767.75;;;3.24;63.65
6423;BME280;3244;42.708;23.288;2023-01-30T13:47:54;94768.53;;;3.27;64.10
6423;BME280;3244;42.708;23.288;2023-01-30T13:50:36;94767.75;;;3.22;64.05
6423;BME280;3244;42.708;23.288;2023-01-30T13:53:10;94760.38;;;3.07;63.83